ドゥアラ の空港の天気 - METARとTAF

ドゥアラ国際空港 ( FKKD / DLA ) - カメルーン ドゥアラ
飛行場実況気象(Metar)
観測時間01/29 07:00 WAT (01/29 06:00 UTC)
風向・風速静穏 0m/s
視程2000m
天気現象もや
少しの雲 雲底高度 490m
少しの雲 雲底高度 610m
気温24℃
湿度100%
気圧1009hPa
METARFKKD 290600Z 00000KT 2000 BR FEW016 FEW020CB 24/24 Q1009 NOSIG
過去の天気等 Google飛行場航空写真 Wunderground天気予報

過去48時間のMETAR

飛行場予報(TAF)
発表時間: 1/29 06:00 WAT (1/29 05:00 UTC)
予報対象時間: 29日7時 WAT ~ 30日13時 WAT
風向・風速不定 1m/s
視程2000m
天気現象もや
全天の4割程度の雲 雲底高度 490m
少しの積乱雲 雲底高度 610m
29日9時 WAT ~ 29日11時 WAT に徐々に
視程4000m
天気現象煙霧
TAF FKKD 290500Z 2906/3012 VRB02KT 2000 BR SCT016 FEW020CB
BECMG 2908/2910 4000 HZ